createdAt,value
2018-11-06T00:02:24.787Z,27.42
2018-11-06T00:05:00.799Z,26.82
2018-11-06T00:07:31.359Z,22.50
2018-11-06T00:10:01.949Z,27.27
2018-11-06T00:12:32.690Z,23.67
2018-11-06T00:15:03.307Z,24.40
2018-11-06T00:17:33.854Z,26.25
2018-11-06T00:20:06.052Z,25.00
2018-11-06T00:22:36.688Z,26.30
2018-11-06T00:25:08.731Z,23.90
2018-11-06T00:27:39.647Z,25.50
2018-11-06T00:30:12.155Z,24.72
2018-11-06T00:32:43.064Z,26.48
2018-11-06T00:35:14.963Z,22.13
2018-11-06T00:37:45.873Z,21.00
2018-11-06T00:40:16.641Z,25.37
2018-11-06T00:42:47.385Z,24.43
2018-11-06T00:45:18.023Z,23.27
2018-11-06T00:47:48.607Z,24.52
2018-11-06T00:50:19.189Z,24.95
2018-11-06T00:52:49.760Z,23.00
2018-11-06T00:55:20.706Z,24.15
2018-11-06T00:57:51.300Z,22.17
2018-11-06T01:00:21.911Z,20.77
2018-11-06T01:02:53.007Z,22.93
2018-11-06T01:05:23.584Z,23.42
2018-11-06T01:07:54.190Z,22.73
2018-11-06T01:10:24.754Z,22.30
2018-11-06T01:12:55.357Z,22.67
2018-11-06T01:15:25.928Z,21.45
2018-11-06T01:17:56.527Z,23.18
2018-11-06T01:20:27.638Z,23.55
2018-11-06T01:22:58.236Z,23.40
2018-11-06T01:25:28.791Z,22.05
2018-11-06T01:27:59.378Z,22.52
2018-11-06T01:30:29.956Z,22.58
2018-11-06T01:33:00.550Z,22.40
2018-11-06T01:35:31.124Z,22.52
2018-11-06T01:38:01.743Z,24.50
2018-11-06T01:40:32.315Z,23.15
2018-11-06T01:43:02.917Z,24.43
2018-11-06T01:45:33.688Z,24.07
2018-11-06T01:48:04.321Z,22.32
2018-11-06T01:50:34.901Z,21.85
2018-11-06T01:53:05.851Z,22.00
2018-11-06T01:55:36.395Z,26.10
2018-11-06T01:58:07.041Z,21.93
2018-11-06T02:00:37.834Z,24.82
2018-11-06T02:03:08.419Z,20.43
2018-11-06T02:05:39.019Z,22.82
2018-11-06T02:08:08.748Z,24.77
2018-11-06T02:10:39.348Z,22.80
2018-11-06T02:13:09.936Z,22.15
2018-11-06T02:15:40.523Z,21.27
2018-11-06T02:18:11.093Z,24.65
2018-11-06T02:20:42.016Z,21.40
2018-11-06T02:23:12.575Z,22.82
2018-11-06T02:25:43.178Z,24.25
2018-11-06T02:28:13.765Z,23.02
2018-11-06T02:30:44.532Z,27.62
2018-11-06T02:33:15.108Z,23.05
2018-11-06T02:35:45.699Z,23.27
2018-11-06T02:38:16.275Z,26.50
2018-11-06T02:40:46.863Z,24.12
2018-11-06T02:43:17.453Z,24.43
2018-11-06T02:45:48.040Z,21.27
2018-11-06T02:48:18.811Z,25.72
2018-11-06T02:50:49.375Z,25.55
2018-11-06T02:53:19.960Z,25.72
2018-11-06T02:55:50.602Z,22.42
2018-11-06T02:58:21.365Z,21.00
2018-11-06T03:00:51.962Z,24.77
2018-11-06T03:03:22.536Z,25.40
2018-11-06T03:05:53.115Z,26.30
2018-11-06T03:08:23.678Z,28.47
2018-11-06T03:10:54.284Z,26.50
2018-11-06T03:13:24.859Z,23.83
2018-11-06T03:15:55.445Z,32.10
2018-11-06T03:18:25.995Z,30.35
2018-11-06T03:20:56.918Z,28.27
2018-11-06T03:23:27.460Z,30.48
2018-11-06T03:25:58.311Z,29.48
2018-11-06T03:28:28.893Z,28.65
2018-11-06T03:30:59.477Z,25.70
2018-11-06T03:33:30.228Z,28.02
2018-11-06T03:36:00.815Z,26.87
2018-11-06T03:38:31.392Z,22.65
2018-11-06T03:41:02.208Z,26.12
2018-11-06T03:43:32.817Z,27.98
2018-11-06T03:46:03.407Z,22.45
2018-11-06T03:48:34.000Z,29.35
2018-11-06T03:51:05.460Z,33.85
2018-11-06T03:53:36.046Z,30.10
2018-11-06T03:56:07.327Z,30.25
2018-11-06T03:58:37.963Z,34.38
2018-11-06T04:01:08.717Z,33.08
2018-11-06T04:03:39.299Z,34.85
2018-11-06T04:06:09.859Z,27.37
2018-11-06T04:08:40.468Z,31.12
2018-11-06T04:11:11.043Z,35.88
2018-11-06T04:13:41.618Z,32.05
2018-11-06T04:16:12.175Z,29.12
2018-11-06T04:18:42.759Z,25.40
2018-11-06T04:21:13.519Z,31.48
2018-11-06T04:23:44.359Z,31.33
2018-11-06T04:26:15.152Z,29.27
2018-11-06T04:28:45.734Z,35.78
2018-11-06T04:31:16.516Z,30.00
2018-11-06T04:33:47.096Z,30.72
2018-11-06T04:36:17.653Z,33.92
2018-11-06T04:38:48.259Z,32.13
2018-11-06T04:41:19.088Z,31.82
2018-11-06T04:43:49.796Z,30.70
2018-11-06T04:46:20.432Z,31.20
2018-11-06T04:48:51.565Z,31.05
2018-11-06T04:51:22.166Z,30.35
2018-11-06T04:53:56.939Z,30.90
2018-11-06T04:56:28.420Z,29.07
2018-11-06T04:58:59.019Z,32.67
2018-11-06T05:01:29.787Z,38.90
2018-11-06T05:04:00.438Z,32.67
2018-11-06T05:06:31.036Z,34.00
2018-11-06T05:09:01.620Z,29.50
2018-11-06T05:11:32.402Z,35.40
2018-11-06T05:14:03.385Z,30.27
2018-11-06T05:16:34.115Z,35.28
2018-11-06T05:19:05.504Z,32.08
2018-11-06T05:21:36.056Z,33.83
2018-11-06T05:24:06.701Z,28.25
2018-11-06T05:26:37.290Z,31.05
2018-11-06T05:29:08.059Z,29.65
2018-11-06T05:31:38.646Z,27.00
2018-11-06T05:34:09.207Z,30.32
2018-11-06T05:36:39.783Z,33.55
2018-11-06T05:39:11.585Z,31.07
2018-11-06T05:41:42.284Z,37.75
2018-11-06T05:44:12.892Z,32.28
2018-11-06T05:46:43.467Z,28.75
2018-11-06T05:49:14.245Z,30.90
2018-11-06T05:51:44.856Z,35.70
2018-11-06T05:54:15.424Z,32.20
2018-11-06T05:56:46.013Z,30.40
2018-11-06T05:59:16.607Z,34.45
2018-11-06T06:01:47.388Z,33.40
2018-11-06T06:04:17.952Z,31.90
2018-11-06T06:06:48.771Z,29.57
2018-11-06T06:09:19.327Z,30.40
2018-11-06T06:11:49.896Z,35.30
2018-11-06T06:14:20.483Z,29.80
2018-11-06T06:16:51.058Z,28.25
2018-11-06T06:19:21.820Z,30.57
2018-11-06T06:21:52.358Z,32.03
2018-11-06T06:24:23.128Z,26.93
2018-11-06T06:26:53.870Z,25.68
2018-11-06T06:29:24.471Z,30.55
2018-11-06T06:31:55.032Z,26.33
2018-11-06T06:34:25.649Z,31.70
2018-11-06T06:36:56.432Z,40.15
2018-11-06T06:39:27.241Z,33.05
2018-11-06T06:41:57.820Z,35.63
2018-11-06T06:44:28.410Z,30.92
2018-11-06T06:46:58.950Z,30.23
2018-11-06T06:49:29.539Z,37.70
2018-11-06T06:52:00.102Z,30.57
2018-11-06T06:54:30.859Z,30.00
2018-11-06T06:57:01.451Z,29.55
2018-11-06T06:59:32.039Z,26.12
2018-11-06T07:02:02.603Z,27.22
2018-11-06T07:04:33.212Z,25.70
2018-11-06T07:07:04.104Z,25.72
2018-11-06T07:09:34.919Z,32.60
2018-11-06T07:12:05.662Z,22.65
2018-11-06T07:14:36.288Z,24.90
2018-11-06T07:17:06.848Z,26.30
2018-11-06T07:19:37.423Z,25.57
2018-11-06T07:22:07.993Z,26.68
2018-11-06T07:24:38.583Z,24.32
2018-11-06T07:27:09.167Z,21.37
2018-11-06T07:29:39.775Z,23.20
2018-11-06T07:32:10.359Z,22.10
2018-11-06T07:37:46.364Z,25.00
2018-11-06T07:40:18.858Z,23.70
2018-11-06T07:42:49.407Z,28.27
2018-11-06T07:45:21.659Z,19.62
2018-11-06T07:47:52.256Z,25.43
2018-11-06T07:50:23.086Z,21.35
2018-11-06T07:52:54.132Z,23.70
2018-11-06T07:55:24.707Z,20.97
2018-11-06T07:58:02.204Z,24.50
2018-11-06T08:00:32.784Z,20.32
2018-11-06T08:03:03.716Z,19.77
2018-11-06T08:05:34.271Z,18.45
2018-11-06T08:08:05.480Z,18.30
2018-11-06T08:10:36.083Z,21.60
2018-11-06T08:13:06.667Z,19.02
2018-11-06T08:15:37.328Z,19.15
2018-11-06T08:18:07.928Z,20.25
2018-11-06T08:20:38.738Z,22.35
2018-11-06T08:23:09.450Z,19.07
2018-11-06T08:25:40.040Z,20.90
2018-11-06T08:28:10.835Z,20.05
2018-11-06T08:30:41.481Z,19.50
2018-11-06T08:33:12.172Z,20.75
2018-11-06T08:35:42.757Z,22.07
2018-11-06T08:38:13.361Z,15.88
2018-11-06T08:40:43.959Z,17.20
2018-11-06T08:43:14.527Z,18.42
2018-11-06T08:45:45.119Z,19.05
2018-11-06T08:48:16.022Z,18.30
2018-11-06T08:50:46.775Z,17.90
2018-11-06T08:53:17.355Z,19.55
2018-11-06T08:55:47.963Z,18.50
2018-11-06T08:58:18.527Z,18.25
2018-11-06T09:00:49.095Z,19.40
2018-11-06T09:03:19.696Z,19.35
2018-11-06T09:05:50.276Z,16.50
2018-11-06T09:08:20.880Z,18.52
2018-11-06T09:10:51.452Z,18.70
2018-11-06T09:13:22.389Z,23.77
2018-11-06T09:15:52.935Z,19.98
2018-11-06T09:18:23.519Z,18.92
2018-11-06T09:20:54.301Z,19.52
2018-11-06T09:23:24.886Z,21.90
2018-11-06T09:25:55.474Z,19.73
2018-11-06T09:28:26.047Z,21.15
2018-11-06T09:30:56.660Z,18.98
2018-11-06T09:33:27.387Z,20.57
2018-11-06T09:35:57.981Z,19.30
2018-11-06T09:38:28.589Z,23.15
2018-11-06T09:40:59.189Z,21.15
2018-11-06T09:43:29.816Z,20.88
2018-11-06T09:46:00.403Z,23.85
2018-11-06T09:48:30.977Z,22.60
2018-11-06T09:51:01.572Z,20.82
2018-11-06T09:53:32.351Z,20.68
2018-11-06T09:56:02.951Z,20.02
2018-11-06T09:58:33.562Z,21.02
2018-11-06T10:01:04.314Z,19.42
2018-11-06T10:03:35.190Z,20.62
2018-11-06T10:06:06.045Z,18.70
2018-11-06T10:08:36.761Z,18.90
2018-11-06T10:11:07.430Z,20.52
2018-11-06T10:13:38.039Z,21.87
2018-11-06T10:16:08.699Z,21.35
2018-11-06T10:18:39.636Z,22.27
2018-11-06T10:21:13.286Z,22.65
2018-11-06T10:23:44.258Z,19.50
2018-11-06T10:26:15.173Z,21.68
2018-11-06T10:28:45.746Z,21.35
2018-11-06T10:31:16.340Z,22.13
2018-11-06T10:33:46.923Z,23.40
2018-11-06T10:36:17.471Z,20.88
2018-11-06T10:38:48.090Z,20.90
2018-11-06T10:41:18.898Z,19.27
2018-11-06T10:43:49.687Z,19.52
2018-11-06T10:46:20.239Z,18.67
2018-11-06T10:48:50.843Z,18.75
2018-11-06T10:51:21.426Z,18.02
2018-11-06T10:53:55.024Z,18.80
2018-11-06T10:56:25.627Z,17.67
2018-11-06T10:58:56.238Z,17.73
2018-11-06T11:01:32.240Z,15.88
2018-11-06T11:04:08.372Z,17.65
2018-11-06T11:06:39.103Z,18.45
2018-11-06T11:09:10.496Z,17.07
2018-11-06T11:11:41.255Z,21.30
2018-11-06T11:14:11.827Z,18.23
2018-11-06T11:16:42.426Z,18.92
2018-11-06T11:19:12.998Z,17.12
2018-11-06T11:21:43.743Z,25.72
2018-11-06T11:24:14.507Z,19.90
2018-11-06T11:26:45.099Z,19.62
2018-11-06T11:29:15.691Z,23.25
2018-11-06T11:31:46.272Z,19.85
2018-11-06T11:34:17.043Z,18.57
2018-11-06T11:36:47.633Z,20.55
2018-11-06T11:39:18.235Z,19.52
2018-11-06T11:41:48.827Z,17.05
2018-11-06T11:44:19.391Z,16.62
2018-11-06T11:46:49.996Z,18.07
2018-11-06T11:49:20.561Z,15.58
2018-11-06T11:51:51.147Z,15.93
2018-11-06T11:54:21.708Z,17.95
2018-11-06T11:56:52.290Z,14.38
2018-11-06T11:59:23.072Z,16.55
2018-11-06T12:01:53.637Z,13.78
2018-11-06T12:04:24.231Z,16.02
2018-11-06T12:06:54.791Z,18.05
2018-11-06T12:09:25.371Z,14.38
2018-11-06T12:11:55.947Z,15.75
2018-11-06T12:14:26.547Z,15.53
2018-11-06T12:16:57.137Z,17.48
2018-11-06T12:19:27.719Z,14.43
2018-11-06T12:21:58.439Z,12.07
2018-11-06T12:24:29.430Z,13.35
2018-11-06T12:27:00.108Z,13.28
2018-11-06T12:29:30.699Z,13.05
2018-11-06T12:32:01.444Z,13.75
2018-11-06T12:34:32.053Z,21.15
2018-11-06T12:37:02.964Z,10.43
2018-11-06T12:39:33.626Z,12.73
2018-11-06T12:42:04.203Z,14.55
2018-11-06T12:44:34.805Z,12.88
2018-11-06T12:47:05.834Z,16.15
2018-11-06T12:49:36.400Z,12.37
2018-11-06T12:52:07.324Z,13.60
2018-11-06T12:54:37.887Z,11.48
2018-11-06T12:57:08.459Z,13.60
2018-11-06T12:59:39.195Z,12.98
2018-11-06T13:02:09.784Z,9.60
2018-11-06T13:04:40.343Z,12.33
2018-11-06T13:07:10.910Z,12.90
2018-11-06T13:09:41.525Z,11.05
2018-11-06T13:12:12.284Z,11.53
2018-11-06T13:14:42.842Z,11.22
2018-11-06T13:17:13.586Z,9.93
2018-11-06T13:19:44.211Z,10.60
2018-11-06T13:22:14.816Z,10.32
2018-11-06T13:24:45.391Z,10.65
2018-11-06T13:27:15.980Z,11.83
2018-11-06T13:29:46.728Z,8.25
2018-11-06T13:32:17.556Z,14.90
2018-11-06T13:34:48.310Z,9.78
2018-11-06T13:37:18.887Z,9.88
2018-11-06T13:39:49.652Z,8.63
2018-11-06T13:42:20.273Z,9.55
2018-11-06T13:44:51.461Z,9.43
2018-11-06T13:47:21.774Z,9.70
2018-11-06T13:49:52.359Z,10.25
2018-11-06T13:52:22.931Z,11.28
2018-11-06T13:54:53.731Z,9.95
2018-11-06T13:57:24.267Z,9.78
2018-11-06T13:59:54.843Z,10.58
2018-11-06T14:02:25.408Z,10.05
2018-11-06T14:04:56.029Z,10.10
2018-11-06T14:07:26.566Z,7.80
2018-11-06T14:09:57.156Z,9.25
2018-11-06T14:12:27.699Z,10.23
2018-11-06T14:14:58.286Z,9.38
2018-11-06T14:17:29.048Z,13.10
2018-11-06T14:19:59.847Z,10.28
2018-11-06T14:22:30.608Z,11.03
2018-11-06T14:25:01.388Z,10.40
2018-11-06T14:27:32.187Z,11.35
2018-11-06T14:30:02.998Z,10.65
2018-11-06T14:32:33.549Z,9.28
2018-11-06T14:35:04.963Z,9.90
2018-11-06T14:37:35.654Z,11.15
2018-11-06T14:40:07.560Z,10.43
2018-11-06T14:42:38.691Z,8.63
2018-11-06T14:45:10.774Z,11.40
2018-11-06T14:47:41.390Z,9.55
2018-11-06T14:50:12.647Z,7.42
2018-11-06T14:52:43.221Z,10.75
2018-11-06T14:55:15.043Z,8.30
2018-11-06T14:57:45.700Z,10.88
2018-11-06T15:00:17.671Z,7.45
2018-11-06T15:02:49.478Z,9.60
2018-11-06T15:05:21.098Z,8.85
2018-11-06T15:07:51.850Z,9.03
2018-11-06T15:10:22.406Z,9.68
2018-11-06T15:12:52.983Z,11.10
2018-11-06T15:15:29.968Z,10.95
2018-11-06T15:18:00.597Z,9.38
2018-11-06T15:20:31.155Z,15.68
2018-11-06T15:23:01.777Z,10.78
2018-11-06T15:25:32.514Z,9.28
2018-11-06T15:28:03.079Z,9.65
2018-11-06T15:30:33.640Z,9.65
2018-11-06T15:33:04.230Z,10.98
2018-11-06T15:35:35.003Z,12.37
2018-11-06T15:38:06.167Z,11.15
2018-11-06T15:40:36.767Z,8.55
2018-11-06T15:43:07.335Z,9.40
2018-11-06T15:45:37.874Z,9.63
2018-11-06T15:48:08.647Z,10.85
2018-11-06T15:50:39.199Z,13.45
2018-11-06T15:53:09.774Z,12.40
2018-11-06T15:55:40.530Z,9.88
2018-11-06T15:58:11.127Z,10.40
2018-11-06T16:00:41.768Z,10.00
2018-11-06T16:03:12.539Z,9.40
2018-11-06T16:05:43.099Z,10.88
2018-11-06T16:08:13.730Z,9.05
2018-11-06T16:10:44.499Z,9.15
2018-11-06T16:13:15.099Z,12.63
2018-11-06T16:15:45.854Z,9.50
2018-11-06T16:18:16.433Z,12.65
2018-11-06T16:20:47.003Z,12.78
2018-11-06T16:23:17.810Z,12.43
2018-11-06T16:25:48.541Z,12.60
2018-11-06T16:28:19.134Z,17.20
2018-11-06T16:30:49.900Z,11.75
2018-11-06T16:33:20.691Z,14.68
2018-11-06T16:35:51.242Z,14.50
2018-11-06T16:38:21.831Z,12.78
2018-11-06T16:40:52.410Z,11.70
2018-11-06T16:43:23.047Z,13.55
2018-11-06T16:45:53.621Z,11.90
2018-11-06T16:48:24.271Z,10.80
2018-11-06T16:50:55.020Z,13.00
2018-11-06T16:53:25.574Z,10.82
2018-11-06T16:55:56.183Z,10.35
2018-11-06T16:58:26.751Z,13.95
2018-11-06T17:00:57.480Z,11.08
2018-11-06T17:03:28.105Z,10.50
2018-11-06T17:05:58.697Z,14.63
2018-11-06T17:08:29.287Z,15.03
2018-11-06T17:10:59.904Z,8.85
2018-11-06T17:13:30.467Z,10.48
2018-11-06T17:16:01.043Z,11.12
2018-11-06T17:18:31.599Z,12.00
2018-11-06T17:21:02.187Z,10.90
2018-11-06T17:23:32.792Z,12.33
2018-11-06T17:26:03.959Z,13.13
2018-11-06T17:28:34.520Z,12.37
2018-11-06T17:31:05.666Z,11.90
2018-11-06T17:33:36.242Z,11.80
2018-11-06T17:36:07.335Z,12.10
2018-11-06T17:38:37.902Z,12.40
2018-11-06T17:41:08.488Z,11.60
2018-11-06T17:43:39.059Z,13.40
2018-11-06T17:46:09.635Z,16.80
2018-11-06T17:48:40.663Z,16.85
2018-11-06T17:51:11.264Z,13.98
2018-11-06T17:53:41.843Z,14.28
2018-11-06T17:56:12.515Z,12.30
2018-11-06T17:58:43.147Z,14.53
2018-11-06T18:01:14.099Z,12.45
2018-11-06T18:03:44.793Z,12.00
2018-11-06T18:06:15.587Z,12.47
2018-11-06T18:08:46.152Z,12.00
2018-11-06T18:11:16.743Z,13.10
2018-11-06T18:13:47.378Z,13.43
2018-11-06T18:16:17.956Z,13.62
2018-11-06T18:18:48.533Z,12.10
2018-11-06T18:21:19.108Z,13.78
2018-11-06T18:23:49.724Z,14.47
2018-11-06T18:26:20.287Z,11.18
2018-11-06T18:28:50.884Z,16.73
2018-11-06T18:31:21.756Z,13.03
2018-11-06T18:33:52.339Z,13.62
2018-11-06T18:36:22.927Z,10.58
2018-11-06T18:38:53.797Z,14.20
2018-11-06T18:41:24.376Z,13.30
2018-11-06T18:43:54.957Z,11.57
2018-11-06T18:46:25.715Z,14.03
2018-11-06T18:48:56.300Z,16.32
2018-11-06T18:51:26.882Z,12.15
2018-11-06T18:53:57.439Z,11.57
2018-11-06T18:56:28.028Z,14.50
2018-11-06T18:58:58.624Z,10.10
2018-11-06T19:01:29.184Z,14.75
2018-11-06T19:03:59.727Z,13.70
2018-11-06T19:06:30.360Z,12.82
2018-11-06T19:09:00.900Z,16.45
2018-11-06T19:11:31.700Z,13.00
2018-11-06T19:14:02.448Z,14.10
2018-11-06T19:16:33.075Z,12.70
2018-11-06T19:19:03.787Z,15.70
2018-11-06T19:21:34.358Z,11.95
2018-11-06T19:24:05.521Z,15.80
2018-11-06T19:26:36.235Z,12.90
2018-11-06T19:29:06.959Z,11.40
2018-11-06T19:31:37.575Z,13.75
2018-11-06T19:34:08.159Z,13.75
2018-11-06T19:36:38.747Z,11.45
2018-11-06T19:39:12.276Z,12.58
2018-11-06T19:41:43.274Z,12.78
2018-11-06T19:44:13.835Z,10.55
2018-11-06T19:46:44.739Z,14.70
2018-11-06T19:49:15.296Z,12.90
2018-11-06T19:51:45.902Z,14.18
2018-11-06T19:54:16.741Z,15.48
2018-11-06T19:56:47.792Z,12.18
2018-11-06T19:59:18.584Z,10.68
2018-11-06T20:01:49.357Z,13.48
2018-11-06T20:04:20.099Z,14.18
2018-11-06T20:06:50.651Z,13.80
2018-11-06T20:09:21.241Z,15.38
2018-11-06T20:11:52.102Z,12.88
2018-11-06T20:14:22.803Z,14.07
2018-11-06T20:16:53.355Z,14.13
2018-11-06T20:19:23.961Z,16.07
2018-11-06T20:21:54.690Z,14.00
2018-11-06T20:24:25.467Z,15.53
2018-11-06T20:26:56.034Z,16.67
2018-11-06T20:29:26.599Z,15.13
2018-11-06T20:31:57.846Z,12.82
2018-11-06T20:34:28.612Z,14.43
2018-11-06T20:36:59.188Z,16.85
2018-11-06T20:39:29.897Z,17.10
2018-11-06T20:42:00.617Z,13.05
2018-11-06T20:44:31.243Z,14.43
2018-11-06T20:47:01.952Z,13.40
2018-11-06T20:49:32.551Z,15.45
2018-11-06T20:52:03.283Z,13.90
2018-11-06T20:54:33.955Z,14.15
2018-11-06T20:57:04.824Z,14.80
2018-11-06T20:59:35.376Z,14.55
2018-11-06T21:02:06.507Z,15.43
2018-11-06T21:04:37.119Z,15.90
2018-11-06T21:07:07.709Z,17.73
2018-11-06T21:09:38.262Z,14.15
2018-11-06T21:12:08.882Z,17.25
2018-11-06T21:14:39.424Z,13.83
2018-11-06T21:17:10.003Z,15.08
2018-11-06T21:19:40.596Z,13.48
2018-11-06T21:22:12.094Z,16.57
2018-11-06T21:24:42.724Z,17.67
2018-11-06T21:27:13.717Z,16.73
2018-11-06T21:29:44.244Z,16.90
2018-11-06T21:32:14.835Z,15.35
2018-11-06T21:34:45.387Z,15.48
2018-11-06T21:37:15.971Z,14.45
2018-11-06T21:39:46.555Z,16.55
2018-11-06T21:42:17.320Z,14.45
2018-11-06T21:44:47.883Z,18.23
2018-11-06T21:47:18.472Z,13.88
2018-11-06T21:49:49.038Z,14.83
2018-11-06T21:52:19.607Z,14.35
2018-11-06T21:54:50.463Z,12.03
2018-11-06T21:57:21.152Z,14.80
2018-11-06T21:59:51.887Z,13.53
2018-11-06T22:02:22.863Z,16.23
2018-11-06T22:04:53.449Z,12.63
2018-11-06T22:07:24.124Z,12.03
2018-11-06T22:09:54.882Z,16.12
2018-11-06T22:12:25.510Z,15.90
2018-11-06T22:14:56.224Z,14.05
2018-11-06T22:17:26.820Z,12.40
2018-11-06T22:19:57.398Z,13.93
2018-11-06T22:22:28.175Z,11.93
2018-11-06T22:24:58.870Z,13.83
2018-11-06T22:27:29.529Z,14.65
2018-11-06T22:30:00.244Z,13.28
2018-11-06T22:32:30.812Z,17.75
2018-11-06T22:35:01.372Z,15.18
2018-11-06T22:37:32.204Z,11.83
2018-11-06T22:40:02.940Z,11.63
2018-11-06T22:42:33.745Z,14.05
2018-11-06T22:45:04.968Z,11.38
2018-11-06T22:47:35.559Z,10.55
2018-11-06T22:50:07.961Z,13.25
2018-11-06T22:52:38.894Z,13.68
2018-11-06T22:55:09.979Z,11.95
2018-11-06T22:57:41.236Z,12.70
2018-11-06T23:00:15.508Z,10.98
2018-11-06T23:02:46.107Z,12.55
2018-11-06T23:05:16.669Z,15.93
2018-11-06T23:07:52.931Z,20.27
2018-11-06T23:10:23.491Z,15.40
2018-11-06T23:12:54.287Z,13.55
2018-11-06T23:15:24.850Z,13.53
2018-11-06T23:17:55.501Z,15.30
2018-11-06T23:20:26.297Z,13.05
2018-11-06T23:22:57.053Z,11.75
2018-11-06T23:25:27.833Z,12.88
2018-11-06T23:27:58.404Z,11.40
2018-11-06T23:30:28.978Z,11.12
2018-11-06T23:32:59.534Z,12.25
2018-11-06T23:35:30.381Z,12.85
2018-11-06T23:38:01.092Z,11.10
2018-11-06T23:40:31.668Z,14.70
2018-11-06T23:43:02.224Z,11.40
2018-11-06T23:45:32.787Z,16.50
2018-11-06T23:48:03.343Z,14.95
2018-11-06T23:50:33.931Z,12.63
2018-11-06T23:53:04.864Z,12.37
2018-11-06T23:55:35.435Z,11.48
2018-11-06T23:58:06.324Z,13.55
